sensor_id;sensor_type;location;lat;lon;timestamp;temperature;humidity
7958;DHT22;4024;52.172;5.378;2023-06-24T00:00:39;23.30;99.90
7958;DHT22;4024;52.172;5.378;2023-06-24T00:03:05;23.20;99.90
7958;DHT22;4024;52.172;5.378;2023-06-24T00:05:33;23.20;99.90
7958;DHT22;4024;52.172;5.378;2023-06-24T00:07:59;23.20;99.90
7958;DHT22;4024;52.172;5.378;2023-06-24T00:10:27;23.20;99.90
7958;DHT22;4024;52.172;5.378;2023-06-24T00:12:53;23.10;99.90
7958;DHT22;4024;52.172;5.378;2023-06-24T00:15:20;23.10;99.90
7958;DHT22;4024;52.172;5.378;2023-06-24T00:17:46;23.10;99.90
7958;DHT22;4024;52.172;5.378;2023-06-24T00:20:11;23.00;99.90
7958;DHT22;4024;52.172;5.378;2023-06-24T00:22:40;23.00;99.90
7958;DHT22;4024;52.172;5.378;2023-06-24T00:25:14;23.00;99.90
7958;DHT22;4024;52.172;5.378;2023-06-24T00:27:41;22.90;99.90
7958;DHT22;4024;52.172;5.378;2023-06-24T00:30:07;22.90;99.90
7958;DHT22;4024;52.172;5.378;2023-06-24T00:32:33;22.90;99.90
7958;DHT22;4024;52.172;5.378;2023-06-24T00:34:59;22.90;99.90
7958;DHT22;4024;52.172;5.378;2023-06-24T00:37:25;22.80;99.90
7958;DHT22;4024;52.172;5.378;2023-06-24T00:39:51;22.80;99.90
7958;DHT22;4024;52.172;5.378;2023-06-24T00:42:17;22.80;99.90
7958;DHT22;4024;52.172;5.378;2023-06-24T00:44:43;22.70;99.90
7958;DHT22;4024;52.172;5.378;2023-06-24T00:47:08;22.60;99.90
7958;DHT22;4024;52.172;5.378;2023-06-24T00:49:35;22.60;99.90
7958;DHT22;4024;52.172;5.378;2023-06-24T00:52:01;22.50;99.90
7958;DHT22;4024;52.172;5.378;2023-06-24T00:54:27;22.50;99.90
7958;DHT22;4024;52.172;5.378;2023-06-24T00:56:57;22.40;99.90
7958;DHT22;4024;52.172;5.378;2023-06-24T00:59:27;22.40;99.90
7958;DHT22;4024;52.172;5.378;2023-06-24T01:01:55;22.40;99.90
7958;DHT22;4024;52.172;5.378;2023-06-24T01:04:21;22.40;99.90
7958;DHT22;4024;52.172;5.378;2023-06-24T01:06:47;22.40;99.90
7958;DHT22;4024;52.172;5.378;2023-06-24T01:09:12;22.30;99.90
7958;DHT22;4024;52.172;5.378;2023-06-24T01:11:39;22.30;99.90
7958;DHT22;4024;52.172;5.378;2023-06-24T01:14:04;22.20;99.90
7958;DHT22;4024;52.172;5.378;2023-06-24T01:16:42;22.20;99.90
7958;DHT22;4024;52.172;5.378;2023-06-24T01:33:17;22.00;99.90
7958;DHT22;4024;52.172;5.378;2023-06-24T01:35:47;22.00;99.90
7958;DHT22;4024;52.172;5.378;2023-06-24T01:38:22;22.00;99.90
7958;DHT22;4024;52.172;5.378;2023-06-24T01:40:50;21.90;99.90
7958;DHT22;4024;52.172;5.378;2023-06-24T01:43:17;21.90;99.90
7958;DHT22;4024;52.172;5.378;2023-06-24T01:45:46;21.80;99.90
7958;DHT22;4024;52.172;5.378;2023-06-24T01:48:23;21.80;99.90
7958;DHT22;4024;52.172;5.378;2023-06-24T01:50:57;21.80;99.90
7958;DHT22;4024;52.172;5.378;2023-06-24T01:53:24;21.70;99.90
7958;DHT22;4024;52.172;5.378;2023-06-24T01:55:53;21.70;99.90
7958;DHT22;4024;52.172;5.378;2023-06-24T01:58:21;21.70;99.90
7958;DHT22;4024;52.172;5.378;2023-06-24T02:00:48;21.60;99.90
7958;DHT22;4024;52.172;5.378;2023-06-24T02:03:15;21.60;99.90
7958;DHT22;4024;52.172;5.378;2023-06-24T02:05:41;21.60;99.90
7958;DHT22;4024;52.172;5.378;2023-06-24T02:08:09;21.50;99.90
7958;DHT22;4024;52.172;5.378;2023-06-24T02:10:39;21.50;99.90
7958;DHT22;4024;52.172;5.378;2023-06-24T02:13:06;21.50;99.90
7958;DHT22;4024;52.172;5.378;2023-06-24T02:15:34;21.40;99.90
7958;DHT22;4024;52.172;5.378;2023-06-24T02:18:01;21.50;99.90
7958;DHT22;4024;52.172;5.378;2023-06-24T02:20:28;21.40;99.90
7958;DHT22;4024;52.172;5.378;2023-06-24T02:22:56;21.40;99.90
7958;DHT22;4024;52.172;5.378;2023-06-24T02:25:25;21.40;99.90
7958;DHT22;4024;52.172;5.378;2023-06-24T02:27:52;21.30;99.90
7958;DHT22;4024;52.172;5.378;2023-06-24T02:30:19;21.30;99.90
7958;DHT22;4024;52.172;5.378;2023-06-24T02:32:46;21.30;99.90
7958;DHT22;4024;52.172;5.378;2023-06-24T02:35:12;21.20;99.90
7958;DHT22;4024;52.172;5.378;2023-06-24T02:37:37;21.20;99.90
7958;DHT22;4024;52.172;5.378;2023-06-24T02:40:03;21.20;99.90
7958;DHT22;4024;52.172;5.378;2023-06-24T02:42:30;21.20;99.90
7958;DHT22;4024;52.172;5.378;2023-06-24T02:44:56;21.20;99.90
7958;DHT22;4024;52.172;5.378;2023-06-24T02:47:22;21.10;99.90
7958;DHT22;4024;52.172;5.378;2023-06-24T02:49:49;21.10;99.90
7958;DHT22;4024;52.172;5.378;2023-06-24T02:52:16;21.00;99.90
7958;DHT22;4024;52.172;5.378;2023-06-24T02:54:43;21.00;99.90
7958;DHT22;4024;52.172;5.378;2023-06-24T02:57:09;21.00;99.90
7958;DHT22;4024;52.172;5.378;2023-06-24T02:59:36;21.00;99.90
7958;DHT22;4024;52.172;5.378;2023-06-24T03:02:03;21.00;99.90
7958;DHT22;4024;52.172;5.378;2023-06-24T03:04:29;20.90;99.90
7958;DHT22;4024;52.172;5.378;2023-06-24T03:06:56;20.90;99.90
7958;DHT22;4024;52.172;5.378;2023-06-24T03:09:22;20.90;99.90
7958;DHT22;4024;52.172;5.378;2023-06-24T03:11:49;20.80;99.90
7958;DHT22;4024;52.172;5.378;2023-06-24T03:14:15;20.80;99.90
7958;DHT22;4024;52.172;5.378;2023-06-24T03:16:41;20.80;99.90
7958;DHT22;4024;52.172;5.378;2023-06-24T03:19:07;20.70;99.90
7958;DHT22;4024;52.172;5.378;2023-06-24T03:21:33;20.70;99.90
7958;DHT22;4024;52.172;5.378;2023-06-24T03:23:59;20.70;99.90
7958;DHT22;4024;52.172;5.378;2023-06-24T03:26:32;20.60;99.90
7958;DHT22;4024;52.172;5.378;2023-06-24T03:28:58;20.60;99.90
7958;DHT22;4024;52.172;5.378;2023-06-24T03:31:24;20.60;99.90
7958;DHT22;4024;52.172;5.378;2023-06-24T03:33:49;20.70;99.90
7958;DHT22;4024;52.172;5.378;2023-06-24T03:36:15;20.60;99.90
7958;DHT22;4024;52.172;5.378;2023-06-24T03:38:41;20.50;99.90
7958;DHT22;4024;52.172;5.378;2023-06-24T03:41:06;20.50;99.90
7958;DHT22;4024;52.172;5.378;2023-06-24T03:43:32;20.50;99.90
7958;DHT22;4024;52.172;5.378;2023-06-24T03:45:57;20.40;99.90
7958;DHT22;4024;52.172;5.378;2023-06-24T03:48:25;20.50;99.90
7958;DHT22;4024;52.172;5.378;2023-06-24T03:50:50;20.40;99.90
7958;DHT22;4024;52.172;5.378;2023-06-24T03:53:16;20.40;99.90
7958;DHT22;4024;52.172;5.378;2023-06-24T03:55:42;20.40;99.90
7958;DHT22;4024;52.172;5.378;2023-06-24T03:58:07;20.40;99.90
7958;DHT22;4024;52.172;5.378;2023-06-24T04:00:33;20.40;99.90
7958;DHT22;4024;52.172;5.378;2023-06-24T04:02:59;20.40;99.90
7958;DHT22;4024;52.172;5.378;2023-06-24T04:05:28;20.30;99.90
7958;DHT22;4024;52.172;5.378;2023-06-24T04:07:54;20.40;99.90
7958;DHT22;4024;52.172;5.378;2023-06-24T04:10:19;20.40;99.90
7958;DHT22;4024;52.172;5.378;2023-06-24T04:12:45;20.40;99.90
7958;DHT22;4024;52.172;5.378;2023-06-24T04:15:11;20.40;99.90
7958;DHT22;4024;52.172;5.378;2023-06-24T04:17:37;20.30;99.90
7958;DHT22;4024;52.172;5.378;2023-06-24T04:20:04;20.50;99.90
7958;DHT22;4024;52.172;5.378;2023-06-24T04:22:34;20.40;99.90
7958;DHT22;4024;52.172;5.378;2023-06-24T04:25:00;20.40;99.90
7958;DHT22;4024;52.172;5.378;2023-06-24T04:27:25;20.40;99.90
7958;DHT22;4024;52.172;5.378;2023-06-24T04:29:51;20.40;99.90
7958;DHT22;4024;52.172;5.378;2023-06-24T04:32:17;20.50;99.90
7958;DHT22;4024;52.172;5.378;2023-06-24T04:34:42;20.40;99.90
7958;DHT22;4024;52.172;5.378;2023-06-24T04:37:08;20.50;99.90
7958;DHT22;4024;52.172;5.378;2023-06-24T04:39:34;20.50;99.90
7958;DHT22;4024;52.172;5.378;2023-06-24T04:41:59;20.70;99.90
7958;DHT22;4024;52.172;5.378;2023-06-24T04:44:26;21.00;99.90
7958;DHT22;4024;52.172;5.378;2023-06-24T04:46:51;21.30;99.90
7958;DHT22;4024;52.172;5.378;2023-06-24T04:49:18;21.70;99.90
7958;DHT22;4024;52.172;5.378;2023-06-24T04:51:43;22.10;99.90
7958;DHT22;4024;52.172;5.378;2023-06-24T04:54:09;22.70;99.90
7958;DHT22;4024;52.172;5.378;2023-06-24T04:56:35;23.30;99.90
7958;DHT22;4024;52.172;5.378;2023-06-24T04:59:01;23.90;99.90
7958;DHT22;4024;52.172;5.378;2023-06-24T05:01:28;24.40;99.90
7958;DHT22;4024;52.172;5.378;2023-06-24T05:03:53;24.90;99.90
7958;DHT22;4024;52.172;5.378;2023-06-24T05:06:19;25.30;99.90
7958;DHT22;4024;52.172;5.378;2023-06-24T05:08:44;25.50;99.90
7958;DHT22;4024;52.172;5.378;2023-06-24T05:11:10;25.70;99.90
7958;DHT22;4024;52.172;5.378;2023-06-24T05:13:36;25.70;99.90
7958;DHT22;4024;52.172;5.378;2023-06-24T05:16:02;25.60;99.90
7958;DHT22;4024;52.172;5.378;2023-06-24T05:18:28;25.50;99.90
7958;DHT22;4024;52.172;5.378;2023-06-24T05:20:53;25.60;99.90
7958;DHT22;4024;52.172;5.378;2023-06-24T05:23:19;25.70;99.90
7958;DHT22;4024;52.172;5.378;2023-06-24T05:25:44;25.80;99.90
7958;DHT22;4024;52.172;5.378;2023-06-24T05:28:10;26.00;99.90
7958;DHT22;4024;52.172;5.378;2023-06-24T05:30:35;26.10;99.90
7958;DHT22;4024;52.172;5.378;2023-06-24T05:33:01;26.50;99.90
7958;DHT22;4024;52.172;5.378;2023-06-24T05:35:27;26.80;99.90
7958;DHT22;4024;52.172;5.378;2023-06-24T05:37:53;27.10;99.90
7958;DHT22;4024;52.172;5.378;2023-06-24T05:40:19;27.50;99.90
7958;DHT22;4024;52.172;5.378;2023-06-24T05:42:44;27.80;99.90
7958;DHT22;4024;52.172;5.378;2023-06-24T05:45:10;28.20;99.90
7958;DHT22;4024;52.172;5.378;2023-06-24T05:47:37;28.50;99.90
7958;DHT22;4024;52.172;5.378;2023-06-24T05:50:04;28.90;99.90
7958;DHT22;4024;52.172;5.378;2023-06-24T05:52:29;29.10;99.90
7958;DHT22;4024;52.172;5.378;2023-06-24T05:54:55;29.40;99.90
7958;DHT22;4024;52.172;5.378;2023-06-24T05:57:21;29.70;99.90
7958;DHT22;4024;52.172;5.378;2023-06-24T05:59:47;30.00;99.90
7958;DHT22;4024;52.172;5.378;2023-06-24T06:02:13;30.20;99.90
7958;DHT22;4024;52.172;5.378;2023-06-24T06:04:39;30.40;99.90
7958;DHT22;4024;52.172;5.378;2023-06-24T06:07:05;30.70;99.90
7958;DHT22;4024;52.172;5.378;2023-06-24T06:09:30;30.80;99.90
7958;DHT22;4024;52.172;5.378;2023-06-24T06:11:56;31.10;99.90
7958;DHT22;4024;52.172;5.378;2023-06-24T06:14:21;31.20;99.40
7958;DHT22;4024;52.172;5.378;2023-06-24T06:16:47;31.50;98.90
7958;DHT22;4024;52.172;5.378;2023-06-24T06:19:13;31.60;96.90
7958;DHT22;4024;52.172;5.378;2023-06-24T06:21:38;31.70;95.70
7958;DHT22;4024;52.172;5.378;2023-06-24T06:24:04;31.70;95.90
7958;DHT22;4024;52.172;5.378;2023-06-24T06:26:30;31.90;96.20
7958;DHT22;4024;52.172;5.378;2023-06-24T06:28:56;32.00;96.00
7958;DHT22;4024;52.172;5.378;2023-06-24T06:31:21;32.10;95.70
7958;DHT22;4024;52.172;5.378;2023-06-24T06:33:48;32.20;94.90
7958;DHT22;4024;52.172;5.378;2023-06-24T06:36:14;32.40;95.80
7958;DHT22;4024;52.172;5.378;2023-06-24T06:38:40;32.50;94.30
7958;DHT22;4024;52.172;5.378;2023-06-24T06:41:06;32.60;93.20
7958;DHT22;4024;52.172;5.378;2023-06-24T06:43:34;32.70;94.40
7958;DHT22;4024;52.172;5.378;2023-06-24T06:45:59;32.80;92.30
7958;DHT22;4024;52.172;5.378;2023-06-24T06:48:25;32.90;93.90
7958;DHT22;4024;52.172;5.378;2023-06-24T06:50:50;33.10;93.80
7958;DHT22;4024;52.172;5.378;2023-06-24T06:53:18;33.20;92.20
7958;DHT22;4024;52.172;5.378;2023-06-24T06:55:44;33.40;92.10
7958;DHT22;4024;52.172;5.378;2023-06-24T06:58:09;33.50;91.50
7958;DHT22;4024;52.172;5.378;2023-06-24T07:00:35;33.60;91.50
7958;DHT22;4024;52.172;5.378;2023-06-24T07:03:00;33.80;90.00
7958;DHT22;4024;52.172;5.378;2023-06-24T07:05:26;33.80;89.60
7958;DHT22;4024;52.172;5.378;2023-06-24T07:07:52;33.90;89.00
7958;DHT22;4024;52.172;5.378;2023-06-24T07:10:19;34.00;89.10
7958;DHT22;4024;52.172;5.378;2023-06-24T07:12:45;34.00;85.00
7958;DHT22;4024;52.172;5.378;2023-06-24T07:15:11;34.10;84.80
7958;DHT22;4024;52.172;5.378;2023-06-24T07:17:36;34.20;85.90
7958;DHT22;4024;52.172;5.378;2023-06-24T07:20:03;34.30;86.50
7958;DHT22;4024;52.172;5.378;2023-06-24T07:22:29;34.40;85.50
7958;DHT22;4024;52.172;5.378;2023-06-24T07:24:56;34.50;85.20
7958;DHT22;4024;52.172;5.378;2023-06-24T07:27:22;34.60;85.10
7958;DHT22;4024;52.172;5.378;2023-06-24T07:29:48;34.70;82.10
7958;DHT22;4024;52.172;5.378;2023-06-24T07:32:13;34.70;79.30
7958;DHT22;4024;52.172;5.378;2023-06-24T07:34:39;34.70;80.90
7958;DHT22;4024;52.172;5.378;2023-06-24T07:37:05;34.70;78.60
7958;DHT22;4024;52.172;5.378;2023-06-24T07:39:30;34.70;79.20
7958;DHT22;4024;52.172;5.378;2023-06-24T07:41:56;34.80;80.30
7958;DHT22;4024;52.172;5.378;2023-06-24T07:44:21;34.90;81.40
7958;DHT22;4024;52.172;5.378;2023-06-24T07:46:47;34.90;81.40
7958;DHT22;4024;52.172;5.378;2023-06-24T07:49:14;35.00;80.80
7958;DHT22;4024;52.172;5.378;2023-06-24T07:51:39;35.10;78.30
7958;DHT22;4024;52.172;5.378;2023-06-24T07:54:05;35.20;77.60
7958;DHT22;4024;52.172;5.378;2023-06-24T07:56:31;35.20;77.20
7958;DHT22;4024;52.172;5.378;2023-06-24T07:58:57;35.30;75.10
7958;DHT22;4024;52.172;5.378;2023-06-24T08:01:23;35.30;72.90
7958;DHT22;4024;52.172;5.378;2023-06-24T08:03:48;35.30;74.10
7958;DHT22;4024;52.172;5.378;2023-06-24T08:06:14;35.30;73.70
7958;DHT22;4024;52.172;5.378;2023-06-24T08:08:40;35.30;75.10
7958;DHT22;4024;52.172;5.378;2023-06-24T08:11:07;35.30;75.20
7958;DHT22;4024;52.172;5.378;2023-06-24T08:13:32;35.30;73.50
7958;DHT22;4024;52.172;5.378;2023-06-24T08:15:58;35.20;70.00
7958;DHT22;4024;52.172;5.378;2023-06-24T08:18:24;35.10;70.20
7958;DHT22;4024;52.172;5.378;2023-06-24T08:20:49;35.00;72.60
7958;DHT22;4024;52.172;5.378;2023-06-24T08:23:15;34.90;71.10
7958;DHT22;4024;52.172;5.378;2023-06-24T08:25:40;34.90;71.60
7958;DHT22;4024;52.172;5.378;2023-06-24T08:28:06;34.90;71.70
7958;DHT22;4024;52.172;5.378;2023-06-24T08:30:32;34.90;72.30
7958;DHT22;4024;52.172;5.378;2023-06-24T08:32:58;35.00;73.60
7958;DHT22;4024;52.172;5.378;2023-06-24T08:35:23;35.00;72.20
7958;DHT22;4024;52.172;5.378;2023-06-24T08:37:49;35.00;71.00
7958;DHT22;4024;52.172;5.378;2023-06-24T08:40:15;35.00;70.30
7958;DHT22;4024;52.172;5.378;2023-06-24T08:42:40;35.00;72.30
7958;DHT22;4024;52.172;5.378;2023-06-24T08:45:06;35.10;72.50
7958;DHT22;4024;52.172;5.378;2023-06-24T08:47:32;35.00;71.50
7958;DHT22;4024;52.172;5.378;2023-06-24T08:50:11;35.10;70.00
7958;DHT22;4024;52.172;5.378;2023-06-24T08:52:38;35.00;69.40
7958;DHT22;4024;52.172;5.378;2023-06-24T08:55:10;35.00;70.80
7958;DHT22;4024;52.172;5.378;2023-06-24T08:57:37;35.00;69.30
7958;DHT22;4024;52.172;5.378;2023-06-24T09:00:03;34.90;70.00
7958;DHT22;4024;52.172;5.378;2023-06-24T09:02:31;34.80;70.90
7958;DHT22;4024;52.172;5.378;2023-06-24T09:04:58;34.70;70.60
7958;DHT22;4024;52.172;5.378;2023-06-24T09:07:26;34.60;69.80
7958;DHT22;4024;52.172;5.378;2023-06-24T09:09:53;34.60;68.40
7958;DHT22;4024;52.172;5.378;2023-06-24T09:12:18;34.50;69.50
7958;DHT22;4024;52.172;5.378;2023-06-24T09:14:50;34.40;70.40
7958;DHT22;4024;52.172;5.378;2023-06-24T09:17:16;34.30;70.80
7958;DHT22;4024;52.172;5.378;2023-06-24T09:19:42;34.30;71.00
7958;DHT22;4024;52.172;5.378;2023-06-24T09:22:09;34.30;70.70
7958;DHT22;4024;52.172;5.378;2023-06-24T09:24:41;34.20;69.30
7958;DHT22;4024;52.172;5.378;2023-06-24T09:27:07;34.10;70.80
7958;DHT22;4024;52.172;5.378;2023-06-24T09:29:34;34.10;72.80
7958;DHT22;4024;52.172;5.378;2023-06-24T09:32:04;34.10;71.40
7958;DHT22;4024;52.172;5.378;2023-06-24T09:34:29;34.00;69.20
7958;DHT22;4024;52.172;5.378;2023-06-24T09:36:57;33.90;70.70
7958;DHT22;4024;52.172;5.378;2023-06-24T09:39:24;33.90;72.90
7958;DHT22;4024;52.172;5.378;2023-06-24T09:41:57;33.90;73.90
7958;DHT22;4024;52.172;5.378;2023-06-24T09:44:23;33.90;72.90
7958;DHT22;4024;52.172;5.378;2023-06-24T09:46:49;34.00;73.60
7958;DHT22;4024;52.172;5.378;2023-06-24T09:49:15;34.00;75.10
7958;DHT22;4024;52.172;5.378;2023-06-24T09:51:44;34.10;74.90
7958;DHT22;4024;52.172;5.378;2023-06-24T09:54:12;34.00;72.30
7958;DHT22;4024;52.172;5.378;2023-06-24T09:56:42;34.10;73.70
7958;DHT22;4024;52.172;5.378;2023-06-24T09:59:10;34.00;72.50
7958;DHT22;4024;52.172;5.378;2023-06-24T10:01:41;34.10;73.70
7958;DHT22;4024;52.172;5.378;2023-06-24T10:04:08;34.00;72.50
7958;DHT22;4024;52.172;5.378;2023-06-24T10:06:34;33.90;72.50
7958;DHT22;4024;52.172;5.378;2023-06-24T10:09:00;33.90;72.70
7958;DHT22;4024;52.172;5.378;2023-06-24T10:11:26;33.80;73.00
7958;DHT22;4024;52.172;5.378;2023-06-24T10:13:52;33.80;74.10
7958;DHT22;4024;52.172;5.378;2023-06-24T10:16:19;33.70;75.00
7958;DHT22;4024;52.172;5.378;2023-06-24T10:18:45;33.70;74.30
7958;DHT22;4024;52.172;5.378;2023-06-24T10:21:11;33.50;75.30
7958;DHT22;4024;52.172;5.378;2023-06-24T10:23:52;33.50;75.10
7958;DHT22;4024;52.172;5.378;2023-06-24T10:26:27;33.40;76.50
7958;DHT22;4024;52.172;5.378;2023-06-24T10:42:29;32.90;79.50
7958;DHT22;4024;52.172;5.378;2023-06-24T10:47:34;32.80;81.90
7958;DHT22;4024;52.172;5.378;2023-06-24T10:50:00;32.70;79.60
7958;DHT22;4024;52.172;5.378;2023-06-24T10:52:26;32.70;79.60
7958;DHT22;4024;52.172;5.378;2023-06-24T10:54:52;32.60;78.90
7958;DHT22;4024;52.172;5.378;2023-06-24T10:57:26;32.50;80.20
7958;DHT22;4024;52.172;5.378;2023-06-24T10:59:53;32.50;81.60
7958;DHT22;4024;52.172;5.378;2023-06-24T11:02:21;32.40;82.70
7958;DHT22;4024;52.172;5.378;2023-06-24T11:04:59;32.40;83.20
7958;DHT22;4024;52.172;5.378;2023-06-24T11:07:27;32.40;82.90
7958;DHT22;4024;52.172;5.378;2023-06-24T11:09:54;32.30;84.10
7958;DHT22;4024;52.172;5.378;2023-06-24T11:12:24;32.30;84.00
7958;DHT22;4024;52.172;5.378;2023-06-24T11:14:51;32.20;82.90
7958;DHT22;4024;52.172;5.378;2023-06-24T11:17:19;32.00;84.30
7958;DHT22;4024;52.172;5.378;2023-06-24T11:19:44;31.90;84.20
7958;DHT22;4024;52.172;5.378;2023-06-24T11:22:10;31.80;85.40
7958;DHT22;4024;52.172;5.378;2023-06-24T11:24:36;31.60;86.60
7958;DHT22;4024;52.172;5.378;2023-06-24T11:27:03;31.50;86.10
7958;DHT22;4024;52.172;5.378;2023-06-24T11:29:29;31.40;87.60
7958;DHT22;4024;52.172;5.378;2023-06-24T11:31:56;31.30;88.60
7958;DHT22;4024;52.172;5.378;2023-06-24T11:34:21;31.30;89.40
7958;DHT22;4024;52.172;5.378;2023-06-24T11:36:48;31.20;90.80
7958;DHT22;4024;52.172;5.378;2023-06-24T11:39:27;31.20;90.90
7958;DHT22;4024;52.172;5.378;2023-06-24T11:41:54;31.10;90.70
7958;DHT22;4024;52.172;5.378;2023-06-24T11:44:26;31.10;90.20
7958;DHT22;4024;52.172;5.378;2023-06-24T11:46:52;31.20;90.60
7958;DHT22;4024;52.172;5.378;2023-06-24T11:49:18;31.10;91.20
7958;DHT22;4024;52.172;5.378;2023-06-24T11:51:51;31.10;91.40
7958;DHT22;4024;52.172;5.378;2023-06-24T11:54:20;31.10;91.70
7958;DHT22;4024;52.172;5.378;2023-06-24T11:56:50;31.10;91.80
7958;DHT22;4024;52.172;5.378;2023-06-24T11:59:21;31.10;93.10
7958;DHT22;4024;52.172;5.378;2023-06-24T12:01:53;31.10;91.50
7958;DHT22;4024;52.172;5.378;2023-06-24T12:04:20;31.00;92.10
7958;DHT22;4024;52.172;5.378;2023-06-24T12:06:45;30.90;92.60
7958;DHT22;4024;52.172;5.378;2023-06-24T12:09:11;30.90;92.60
7958;DHT22;4024;52.172;5.378;2023-06-24T12:11:38;30.80;92.80
7958;DHT22;4024;52.172;5.378;2023-06-24T12:14:04;30.80;93.20
7958;DHT22;4024;52.172;5.378;2023-06-24T12:16:30;30.80;92.90
7958;DHT22;4024;52.172;5.378;2023-06-24T12:18:56;30.80;93.50
7958;DHT22;4024;52.172;5.378;2023-06-24T12:21:21;30.80;93.50
7958;DHT22;4024;52.172;5.378;2023-06-24T12:23:47;30.80;93.80
7958;DHT22;4024;52.172;5.378;2023-06-24T12:26:13;30.80;93.30
7958;DHT22;4024;52.172;5.378;2023-06-24T12:28:39;30.80;93.80
7958;DHT22;4024;52.172;5.378;2023-06-24T12:31:04;30.80;93.80
7958;DHT22;4024;52.172;5.378;2023-06-24T12:33:30;30.80;94.60
7958;DHT22;4024;52.172;5.378;2023-06-24T12:35:56;30.80;93.90
7958;DHT22;4024;52.172;5.378;2023-06-24T12:38:21;30.90;94.00
7958;DHT22;4024;52.172;5.378;2023-06-24T12:40:47;30.80;92.80
7958;DHT22;4024;52.172;5.378;2023-06-24T12:43:13;30.80;93.80
7958;DHT22;4024;52.172;5.378;2023-06-24T12:45:43;30.80;94.00
7958;DHT22;4024;52.172;5.378;2023-06-24T12:48:09;30.90;92.60
7958;DHT22;4024;52.172;5.378;2023-06-24T12:50:35;30.90;92.50
7958;DHT22;4024;52.172;5.378;2023-06-24T12:53:01;31.00;92.60
7958;DHT22;4024;52.172;5.378;2023-06-24T12:55:27;31.10;92.40
7958;DHT22;4024;52.172;5.378;2023-06-24T12:57:53;31.10;91.80
7958;DHT22;4024;52.172;5.378;2023-06-24T13:00:23;31.10;91.70
7958;DHT22;4024;52.172;5.378;2023-06-24T13:02:50;31.10;91.70
7958;DHT22;4024;52.172;5.378;2023-06-24T13:05:16;31.10;91.00
7958;DHT22;4024;52.172;5.378;2023-06-24T13:07:42;31.10;90.10
7958;DHT22;4024;52.172;5.378;2023-06-24T13:10:08;31.10;90.80
7958;DHT22;4024;52.172;5.378;2023-06-24T13:12:34;31.10;91.70
7958;DHT22;4024;52.172;5.378;2023-06-24T13:15:00;31.20;92.00
7958;DHT22;4024;52.172;5.378;2023-06-24T13:17:26;31.30;92.50
7958;DHT22;4024;52.172;5.378;2023-06-24T13:19:52;31.30;92.30
7958;DHT22;4024;52.172;5.378;2023-06-24T13:22:18;31.30;91.60
7958;DHT22;4024;52.172;5.378;2023-06-24T13:24:45;31.30;91.40
7958;DHT22;4024;52.172;5.378;2023-06-24T13:27:11;31.30;91.90
7958;DHT22;4024;52.172;5.378;2023-06-24T13:29:36;31.40;93.00
7958;DHT22;4024;52.172;5.378;2023-06-24T13:32:02;31.40;91.80
7958;DHT22;4024;52.172;5.378;2023-06-24T13:34:28;31.50;91.60
7958;DHT22;4024;52.172;5.378;2023-06-24T13:36:53;31.50;91.70
7958;DHT22;4024;52.172;5.378;2023-06-24T13:39:20;31.50;91.40
7958;DHT22;4024;52.172;5.378;2023-06-24T13:41:49;31.50;90.80
7958;DHT22;4024;52.172;5.378;2023-06-24T13:44:15;31.50;90.70
7958;DHT22;4024;52.172;5.378;2023-06-24T13:46:41;31.50;90.60
7958;DHT22;4024;52.172;5.378;2023-06-24T13:49:07;31.40;90.50
7958;DHT22;4024;52.172;5.378;2023-06-24T13:51:33;31.40;90.80
7958;DHT22;4024;52.172;5.378;2023-06-24T13:53:59;31.40;89.40
7958;DHT22;4024;52.172;5.378;2023-06-24T13:56:26;31.30;89.20
7958;DHT22;4024;52.172;5.378;2023-06-24T13:58:52;31.30;90.30
7958;DHT22;4024;52.172;5.378;2023-06-24T14:01:18;31.30;90.60
7958;DHT22;4024;52.172;5.378;2023-06-24T14:03:44;31.30;90.70
7958;DHT22;4024;52.172;5.378;2023-06-24T14:06:10;31.30;91.00
7958;DHT22;4024;52.172;5.378;2023-06-24T14:08:36;31.30;91.60
7958;DHT22;4024;52.172;5.378;2023-06-24T14:11:02;31.30;92.10
7958;DHT22;4024;52.172;5.378;2023-06-24T14:13:28;31.30;91.50
7958;DHT22;4024;52.172;5.378;2023-06-24T14:15:55;31.30;92.50
7958;DHT22;4024;52.172;5.378;2023-06-24T14:18:21;31.30;91.80
7958;DHT22;4024;52.172;5.378;2023-06-24T14:20:46;31.40;91.80
7958;DHT22;4024;52.172;5.378;2023-06-24T14:23:12;31.50;91.60
7958;DHT22;4024;52.172;5.378;2023-06-24T14:25:38;31.60;91.50
7958;DHT22;4024;52.172;5.378;2023-06-24T14:28:06;31.70;90.60
7958;DHT22;4024;52.172;5.378;2023-06-24T14:30:33;31.70;91.60
7958;DHT22;4024;52.172;5.378;2023-06-24T14:32:58;31.90;91.50
7958;DHT22;4024;52.172;5.378;2023-06-24T14:35:25;31.90;90.00
7958;DHT22;4024;52.172;5.378;2023-06-24T14:37:51;32.00;90.20
7958;DHT22;4024;52.172;5.378;2023-06-24T14:40:16;32.00;90.80
7958;DHT22;4024;52.172;5.378;2023-06-24T14:42:42;32.00;90.20
7958;DHT22;4024;52.172;5.378;2023-06-24T14:45:08;32.00;90.00
7958;DHT22;4024;52.172;5.378;2023-06-24T14:47:33;32.00;89.20
7958;DHT22;4024;52.172;5.378;2023-06-24T14:49:59;32.00;89.30
7958;DHT22;4024;52.172;5.378;2023-06-24T14:52:25;32.00;88.90
7958;DHT22;4024;52.172;5.378;2023-06-24T14:54:50;32.00;87.60
7958;DHT22;4024;52.172;5.378;2023-06-24T14:57:16;32.00;88.20
7958;DHT22;4024;52.172;5.378;2023-06-24T14:59:41;32.00;90.30
7958;DHT22;4024;52.172;5.378;2023-06-24T15:02:07;32.00;90.10
7958;DHT22;4024;52.172;5.378;2023-06-24T15:04:33;32.00;90.50
7958;DHT22;4024;52.172;5.378;2023-06-24T15:06:59;32.10;90.90
7958;DHT22;4024;52.172;5.378;2023-06-24T15:09:25;32.10;90.90
7958;DHT22;4024;52.172;5.378;2023-06-24T15:11:51;32.20;90.00
7958;DHT22;4024;52.172;5.378;2023-06-24T15:14:16;32.20;87.40
7958;DHT22;4024;52.172;5.378;2023-06-24T15:16:42;32.30;90.20
7958;DHT22;4024;52.172;5.378;2023-06-24T15:19:08;32.30;90.60
7958;DHT22;4024;52.172;5.378;2023-06-24T15:21:33;32.40;89.80
7958;DHT22;4024;52.172;5.378;2023-06-24T15:24:01;32.50;90.30
7958;DHT22;4024;52.172;5.378;2023-06-24T15:26:26;32.50;89.40
7958;DHT22;4024;52.172;5.378;2023-06-24T15:28:52;32.60;89.80
7958;DHT22;4024;52.172;5.378;2023-06-24T15:31:19;32.60;87.40
7958;DHT22;4024;52.172;5.378;2023-06-24T15:33:45;32.70;87.40
7958;DHT22;4024;52.172;5.378;2023-06-24T15:36:10;32.70;86.90
7958;DHT22;4024;52.172;5.378;2023-06-24T15:38:36;32.70;86.50
7958;DHT22;4024;52.172;5.378;2023-06-24T15:41:02;32.60;86.00
7958;DHT22;4024;52.172;5.378;2023-06-24T15:43:27;32.70;84.60
7958;DHT22;4024;52.172;5.378;2023-06-24T15:45:53;32.60;84.40
7958;DHT22;4024;52.172;5.378;2023-06-24T15:48:19;32.50;85.80
7958;DHT22;4024;52.172;5.378;2023-06-24T15:50:44;32.50;85.90
7958;DHT22;4024;52.172;5.378;2023-06-24T15:53:10;32.50;88.50
7958;DHT22;4024;52.172;5.378;2023-06-24T15:55:35;32.50;88.90
7958;DHT22;4024;52.172;5.378;2023-06-24T15:58:01;32.40;88.80
7958;DHT22;4024;52.172;5.378;2023-06-24T16:00:26;32.40;87.40
7958;DHT22;4024;52.172;5.378;2023-06-24T16:02:52;32.30;86.90
7958;DHT22;4024;52.172;5.378;2023-06-24T16:05:18;32.20;89.60
7958;DHT22;4024;52.172;5.378;2023-06-24T16:07:43;32.20;89.10
7958;DHT22;4024;52.172;5.378;2023-06-24T16:10:09;32.20;91.50
7958;DHT22;4024;52.172;5.378;2023-06-24T16:12:35;32.10;92.80
7958;DHT22;4024;52.172;5.378;2023-06-24T16:15:00;32.00;93.60
7958;DHT22;4024;52.172;5.378;2023-06-24T16:17:27;32.00;93.60
7958;DHT22;4024;52.172;5.378;2023-06-24T16:19:53;31.90;93.90
7958;DHT22;4024;52.172;5.378;2023-06-24T16:22:18;31.70;94.20
7958;DHT22;4024;52.172;5.378;2023-06-24T16:24:44;31.70;94.60
7958;DHT22;4024;52.172;5.378;2023-06-24T16:27:10;31.60;95.30